x

Buoy F01 - West Penobscot Bay (44033) Wave Buoy

12:04am - Tue 26th May 2015 All times are EDT. -4 hours from GMT.

  • Sig Wave height 1.6ft
  • Peak Period 5s
  • Wind
    9mph
  • Sea Temp 48°f
  • Air Temp 51°f
  • Sea Pressure 1019.2mb
  • Buoy F01 - West Penobscot Bay
  • Buoy F01 - West Penobscot Bay

More Historic Weather Station data

Upgrade to MSW Pro to gain access to the past 30 days of data for over 8000 Wavebouys and Weather Stations around the globe.

Join Pro

Comparision Forecast

View Surf forecast
   
Tue 05/26 12:04am 1.6ft 5s 9
mph
1019.2mb 48f 51f
Mon 05/25 11:04pm 2ft 5s 4
mph
1019.5mb 46f 50f
8:04pm 1.6ft 5s 9 11 mph 1019.4mb 46f 52f
7:04pm 1.6ft 5s 11 16 mph 1019.1mb 46f 53f
6:04pm 2ft 5s 16 18 mph 1018.9mb 46f 53f
5:04pm 2ft 5s 13 18 mph 1019.1mb 46f 52f
4:04pm 1.6ft 5s 16
mph
1018.9mb 46f 50f
3:04pm 2.5ft 5s 16 18 mph 1019.2mb 46f 52f
2:04pm 2ft 6s 13 16 mph 1019.2mb 47f 51f
1:04pm 2ft 5s 13 18 mph 1019.6mb 47f 50f
12:04pm 2ft 5s 11 13 mph 1020mb 47f 51f
11:04am 2ft 6s 11 13 mph 1020.2mb 47f 50f
10:04am 2.5ft 6s 11 13 mph 1020.3mb 47f 50f
9:04am 2.5ft 6s 13 16 mph 1020.5mb 46f 52f
8:04am 2ft 6s 11 13 mph 1020.4mb 46f 51f
7:04am 2.5ft 6s 9 11 mph 1019.9mb 46f 49f
6:04am 2.5ft 6s 7 9 mph 1019.5mb 46f 49f
5:04am 2ft 6s 7 9 mph 1019.2mb 46f 49f
4:04am 2.5ft 5s 4 7 mph 1019.1mb 46f 50f
3:04am 2.5ft 6s 9
mph
1019mb 46f 51f
2:04am 2.5ft 5s 7 9 mph 1019.2mb 46f 51f
1:04am 2.5ft 6s 11 13 mph 1018.8mb 46f 50f
12:04am 2.5ft 5s 7 9 mph 1019mb 46f 51f
Sun 05/24 11:04pm 2.5ft 5s 9 11 mph 1018.4mb 46f 50f
10:04pm 2.5ft 6s 16 18 mph 1017.9mb 47f 51f
9:04pm 2.5ft 6s 11 13 mph 1017.4mb 46f 51f
8:04pm 2.5ft 6s 18 20 mph 1016.3mb 47f 52f
7:04pm 2ft 6s 16 18 mph 1015.8mb 47f 53f
6:04pm 2.5ft 6s 16 18 mph 1016mb 47f 53f
5:04pm 2.5ft 6s 16 18 mph 1016.4mb 47f 52f
4:04pm 2.5ft 6s 13 20 mph 1016.6mb 47f 54f
3:04pm 2.5ft 6s 16 18 mph 1016.8mb 47f 52f
2:04pm 2.5ft 6s 16 20 mph 1017.2mb 47f 50f
1:04pm 2.5ft 6s 13 16 mph 1017.8mb 47f 54f
12:04pm 2.5ft 6s 13 16 mph 1018.3mb 47f 50f
11:04am 2.5ft 6s 4 7 mph 1018.9mb 46f 51f
10:04am 2.5ft 5s 11 13 mph 1019.2mb 46f 49f
9:04am 2.5ft 5s 11
mph
1019.4mb 46f 48f
8:04am 2ft 5s 11 13 mph 1019.2mb 46f 49f
7:04am 2.5ft 5s 16 18 mph 1019mb 45f 49f
6:04am 2.5ft 5s 13 16 mph 1019.2mb 45f 48f
5:04am 2ft 3s 18 20 mph 1018.8mb 45f 48f
4:04am 1.6ft 5s 18 20 mph 1019.1mb 45f 48f
3:04am 2ft 4s 13 18 mph 1019.4mb 45f 48f
2:04am 1.3ft 3s 11 13 mph 1020.2mb 46f 48f
1:04am 1.6ft 8s 9 11 mph 1020.6mb 46f 47f
12:04am 1.6ft 4s 13 16 mph 1021.2mb 46f 48f
Sat 05/23 11:04pm 1ft 4s 9 11 mph 1021.4mb 46f 48f
10:04pm 1ft 4s 7 9 mph 1021.7mb 46f 48f
9:04pm 1ft 4s 7 9 mph 1021.5mb 46f 49f
8:04pm 1.6ft 4s 7 9 mph 1021.1mb 46f 47f
7:04pm 1.6ft 4s 11 18 mph 1020.5mb 46f 55f
6:04pm 1.3ft 2s 13 22 mph 1020.2mb 46f 55f
5:04pm 1.3ft 3s 18 25 mph 1020.3mb 45f 56f
4:04pm 1.3ft 3s 16 20 mph 1020.7mb 45f 54f
3:04pm 2ft 8s 16 22 mph 1020.8mb 45f 52f
2:04pm 1.6ft 3s 18 22 mph 1020.9mb 45f 51f
1:04pm 1.6ft 3s 16 22 mph 1020.7mb 45f 50f
12:04pm 1.6ft 3s 16 25 mph 1020.6mb 45f 48f
11:04am 1.6ft 3s 20 25 mph 1020.5mb 45f 47f
10:04am 2ft 3s 22 27 mph 1020.4mb 45f 46f
9:04am 2.5ft 8s 20 27 mph 1020.3mb 45f 44f
8:04am 1.6ft 8s 18 22 mph 1019.9mb 45f 43f
7:04am 0.7ft  -  18 22 mph 1019.5mb 45f 42f
6:04am 1ft 2s 13 18 mph 1018.6mb 44f 40f
5:04am 1.6ft 3s 16 20 mph 1017.6mb 44f 41f
4:04am 2.5ft 3s 22 27 mph 1016.7mb 44f 42f
3:04am 2ft 3s 20 27 mph 1015.2mb 44f 46f
2:04am 1.6ft 3s 18 25 mph 1014.4mb 44f 47f
1:04am 1.6ft 3s 20 27 mph 1014mb 44f 48f
12:04am 1.3ft 3s 16 20 mph 1014.3mb 45f 48f
Fri 05/22 11:04pm 1.6ft 5s 18 22 mph 1013.7mb 45f 49f
10:04pm 1.3ft 5s 18 22 mph 1013.5mb 45f 51f
9:04pm 1.3ft 5s 11 13 mph 1012.6mb 46f 52f
8:04pm 1.3ft 5s 9 11 mph 1011.5mb 46f 53f
7:04pm 1.6ft 5s 4 7 mph 1010.2mb 45f 47f
6:04pm 1.6ft 5s 4 7 mph 1009.3mb 45f 46f
5:04pm 1.6ft 5s 9
mph
1008.5mb 46f 46f
4:04pm 2.5ft 5s 9 13 mph 1007.9mb 46f 46f
3:04pm 2.5ft 5s 11 13 mph 1007mb 46f 47f
2:04pm 2.5ft 5s 13 16 mph 1007.1mb 46f 47f
1:04pm 2ft 5s 13 16 mph 1007.4mb 46f 47f
12:04pm 2.5ft 5s 11 13 mph 1007.8mb 46f 47f
11:04am 2.5ft 5s 9
mph
1008.1mb 46f 47f
10:04am 2.5ft 5s 11 13 mph 1008.4mb 46f 46f
9:04am 2.5ft 5s 11 13 mph 1008.9mb 46f 47f
8:04am 2.5ft 5s 11 13 mph 1008.7mb 46f 47f
7:04am 2.5ft 5s 11 13 mph 1008.6mb 46f 47f
6:04am 2ft 5s 9 11 mph 1008.1mb 46f 47f